Time;durP1;ratioP1;P1;durP2;ratioP2;P2;SDS_P1;SDS_P2;PMS_P1;PMS_P2;Temp;Humidity;BMP_temperature;BMP_pressure;BME280_temperature;BME280_humidity;BME280_pressure;Samples;Min_cycle;Max_cycle;Signal;HPM_P1;HPM_P2
2023/04/09 00:00:50;;;;;;;15.48;13.98;;;;;;;5.39;100.00;99252.78;15276282;19;20340;-44
2023/04/09 00:06:18;;;;;;;16.30;14.70;;;;;;;5.40;100.00;99259.81;15275853;19;20038;-46
2023/04/09 00:11:42;;;;;;;16.33;14.73;;;;;;;5.40;100.00;99265.19;15276390;19;20018;-53
2023/04/09 00:17:09;;;;;;;17.08;15.38;;;;;;;5.37;100.00;99260.91;15296951;19;20031;-44
2023/04/09 00:22:37;;;;;;;16.23;14.63;;;;;;;5.37;100.00;99254.69;15277151;19;20466;-49
2023/04/09 00:28:08;;;;;;;16.88;15.15;;;;;;;5.31;100.00;99258.66;15273811;19;20006;-45
2023/04/09 00:33:33;;;;;;;16.13;14.57;;;;;;;5.28;100.00;99258.00;15271676;19;20011;-48
2023/04/09 00:39:01;;;;;;;16.92;15.13;;;;;;;5.20;100.00;99261.22;15272332;19;20272;-47
2023/04/09 00:44:26;;;;;;;17.15;15.35;;;;;;;5.15;100.00;99264.19;14758976;19;10000738;-47
2023/04/09 00:49:50;;;;;;;17.05;15.35;;;;;;;5.12;100.00;99268.91;15275476;19;20890;-48
2023/04/09 00:55:19;;;;;;;18.67;16.67;;;;;;;5.11;100.00;99272.53;15265933;19;20038;-47
2023/04/09 01:00:45;;;;;;;18.80;16.80;;;;;;;5.08;100.00;99273.63;15269359;19;20356;-45
2023/04/09 01:06:17;;;;;;;18.15;16.25;;;;;;;5.06;100.00;99276.38;15270992;19;20010;-46
2023/04/09 01:11:49;;;;;;;18.30;16.27;;;;;;;5.03;100.00;99278.41;15267183;19;20019;-46
2023/04/09 01:17:19;;;;;;;18.27;16.30;;;;;;;5.02;100.00;99268.66;15273537;19;20025;-46
2023/04/09 01:23:05;;;;;;;19.65;17.55;;;;;;;5.03;100.00;99265.03;15265246;19;20781;-47
2023/04/09 01:28:44;;;;;;;19.52;17.42;;;;;;;4.98;100.00;99270.72;15266465;19;20043;-45
2023/04/09 01:34:10;;;;;;;19.92;17.80;;;;;;;4.91;100.00;99275.59;15266515;19;20011;-44
2023/04/09 01:39:36;;;;;;;19.48;17.38;;;;;;;4.89;100.00;99264.16;15270030;19;20086;-44
2023/04/09 01:45:07;;;;;;;20.23;18.02;;;;;;;4.89;100.00;99261.50;15261675;19;20026;-47
2023/04/09 01:50:32;;;;;;;19.80;17.70;;;;;;;4.89;100.00;99263.31;15269082;19;20015;-44
2023/04/09 01:55:57;;;;;;;20.48;18.38;;;;;;;4.85;100.00;99273.38;15268503;19;20366;-50
2023/04/09 02:01:31;;;;;;;20.17;18.05;;;;;;;4.77;100.00;99260.53;15262056;19;20021;-44
2023/04/09 02:07:01;;;;;;;20.77;18.48;;;;;;;4.75;100.00;99264.28;15268326;19;20010;-48
2023/04/09 02:12:27;;;;;;;19.98;17.77;;;;;;;4.67;100.00;99266.56;15265991;19;20046;-46
2023/04/09 02:17:55;;;;;;;21.20;19.00;;;;;;;4.61;100.00;99267.84;15263247;19;20096;-47
2023/04/09 02:23:20;;;;;;;20.25;18.15;;;;;;;4.52;100.00;99263.13;15264458;19;20082;-45
2023/04/09 02:28:52;;;;;;;21.67;19.38;;;;;;;4.38;100.00;99261.38;15264159;19;20021;-49
2023/04/09 02:34:20;;;;;;;21.77;19.48;;;;;;;4.28;100.00;99261.13;15264725;19;20014;-48
2023/04/09 02:39:45;;;;;;;21.90;19.55;;;;;;;4.18;100.00;99273.34;15264780;19;20022;-44
2023/04/09 02:45:12;;;;;;;23.17;19.67;;;;;;;4.06;100.00;99272.34;15263574;19;20010;-45
2023/04/09 02:50:39;;;;;;;23.55;20.63;;;;;;;3.99;100.00;99274.53;15262524;19;20018;-43
2023/04/09 02:56:04;;;;;;;21.13;18.90;;;;;;;3.78;100.00;99263.44;15272504;19;20022;-49
2023/04/09 03:01:29;;;;;;;21.67;19.17;;;;;;;3.66;100.00;99259.72;15283519;19;20238;-45
2023/04/09 03:06:58;;;;;;;22.85;20.00;;;;;;;3.58;100.00;99262.88;15281365;19;20118;-44
2023/04/09 03:12:23;;;;;;;27.00;22.58;;;;;;;3.51;100.00;99257.09;15281238;19;20017;-49
2023/04/09 03:17:48;;;;;;;28.80;23.77;;;;;;;3.44;100.00;99261.06;15280402;19;20021;-47
2023/04/09 03:23:16;;;;;;;29.52;23.70;;;;;;;3.38;100.00;99261.47;15267418;19;20033;-43
2023/04/09 03:28:48;;;;;;;28.17;22.92;;;;;;;3.33;100.00;99266.19;15271283;19;20029;-43
2023/04/09 03:34:14;;;;;;;22.60;20.30;;;;;;;3.25;100.00;99258.69;15271875;19;20031;-46
2023/04/09 03:39:43;;;;;;;23.48;19.75;;;;;;;3.13;100.00;99262.09;15273321;19;20019;-48
2023/04/09 03:45:12;;;;;;;22.77;20.27;;;;;;;3.04;100.00;99253.72;15272647;19;20018;-46
2023/04/09 03:50:46;;;;;;;24.98;21.42;;;;;;;2.93;100.00;99265.03;15276220;19;20276;-45
2023/04/09 03:56:22;;;;;;;27.98;23.65;;;;;;;2.85;100.00;99282.41;15269804;19;20876;-45
2023/04/09 04:01:52;;;;;;;28.48;23.95;;;;;;;2.82;100.00;99279.91;15271906;19;20358;-43
2023/04/09 04:07:20;;;;;;;26.50;22.80;;;;;;;2.75;100.00;99282.94;15274554;19;20026;-44
2023/04/09 04:12:53;;;;;;;29.15;22.63;;;;;;;2.67;100.00;99285.19;15273360;19;20019;-45
2023/04/09 04:18:26;;;;;;;27.35;22.90;;;;;;;2.59;100.00;99288.28;15274576;19;20037;-45
2023/04/09 04:23:51;;;;;;;28.67;24.63;;;;;;;2.52;100.00;99281.63;15270857;19;20015;-43
2023/04/09 04:29:25;;;;;;;30.75;24.92;;;;;;;2.49;100.00;99296.91;15270768;19;20024;-44
2023/04/09 04:35:04;;;;;;;31.35;24.92;;;;;;;2.44;100.00;99297.16;15268803;19;20014;-47
2023/04/09 04:40:30;;;;;;;49.63;34.13;;;;;;;2.44;100.00;99313.13;15268380;19;20014;-47
2023/04/09 04:45:58;;;;;;;35.53;27.25;;;;;;;2.41;100.00;99311.47;15271624;19;20043;-45
2023/04/09 04:51:30;;;;;;;37.28;28.92;;;;;;;2.40;100.00;99322.22;15257715;19;20010;-45
2023/04/09 04:57:00;;;;;;;38.28;29.30;;;;;;;2.38;100.00;99322.31;15265228;19;20504;-40
2023/04/09 05:02:27;;;;;;;556.58;29.17;;;;;;;2.14;100.00;99325.41;15265619;19;20015;-40
2023/04/09 05:08:01;;;;;;;462.35;27.52;;;;;;;1.88;100.00;99329.50;15271797;19;20014;-42
2023/04/09 05:13:27;;;;;;;36.50;26.27;;;;;;;1.88;100.00;99334.81;15269091;19;20527;-42
2023/04/09 05:18:58;;;;;;;31.60;24.67;;;;;;;1.96;100.00;99334.38;15262478;19;20118;-42
2023/04/09 05:24:22;;;;;;;34.25;26.10;;;;;;;1.97;100.00;99342.28;15268922;19;21291;-42
2023/04/09 05:29:47;;;;;;;26.10;22.38;;;;;;;1.98;100.00;99340.47;15263097;19;20094;-44
2023/04/09 05:35:18;;;;;;;21.95;18.98;;;;;;;1.97;100.00;99342.28;15268703;19;20340;-41
2023/04/09 05:40:44;;;;;;;18.80;16.75;;;;;;;1.96;100.00;99343.22;15265872;19;20014;-42
2023/04/09 05:46:09;;;;;;;19.63;17.52;;;;;;;1.89;100.00;99340.97;15267278;19;20027;-42
2023/04/09 05:51:45;;;;;;;34.92;17.38;;;;;;;1.88;100.00;99350.78;15241414;19;20014;-43
2023/04/09 05:57:12;;;;;;;53.75;17.70;;;;;;;1.87;100.00;99358.81;15266301;19;20030;-42
2023/04/09 06:02:41;;;;;;;60.92;16.02;;;;;;;1.94;100.00;99370.84;15257964;19;20014;-42
2023/04/09 06:08:09;;;;;;;200.02;18.45;;;;;;;1.96;100.00;99368.94;15265896;19;20014;-42
2023/04/09 06:13:33;;;;;;;142.13;19.45;;;;;;;1.92;100.00;99378.03;15265284;19;20036;-42
2023/04/09 06:18:59;;;;;;;69.38;22.15;;;;;;;2.07;100.00;99385.16;15263487;19;20082;-44
2023/04/09 06:24:28;;;;;;;51.97;22.02;;;;;;;2.21;100.00;99404.81;15265970;19;20013;-43
2023/04/09 06:29:53;;;;;;;137.02;24.92;;;;;;;2.38;100.00;99426.03;15261562;19;20018;-42
2023/04/09 06:35:18;;;;;;;65.10;24.10;;;;;;;2.55;100.00;99443.72;15261381;19;20026;-42
2023/04/09 06:40:46;;;;;;;99.13;24.80;;;;;;;2.75;100.00;99445.28;15260643;19;20027;-42
2023/04/09 06:46:10;;;;;;;34.08;21.80;;;;;;;2.92;100.00;99443.44;15262794;19;20101;-42
2023/04/09 06:51:41;;;;;;;23.80;20.83;;;;;;;3.01;100.00;99437.59;15184666;19;20108;-43
2023/04/09 06:57:09;;;;;;;33.87;20.60;;;;;;;3.19;100.00;99432.16;15263959;19;20039;-43
2023/04/09 07:02:35;;;;;;;225.55;21.42;;;;;;;3.28;100.00;99422.78;15260794;19;20950;-42
2023/04/09 07:08:01;;;;;;;456.45;25.42;;;;;;;3.29;100.00;99419.16;15257860;19;20022;-43
2023/04/09 07:13:28;;;;;;;237.35;22.55;;;;;;;3.41;100.00;99421.09;15260961;19;20014;-42
2023/04/09 07:18:53;;;;;;;447.80;25.27;;;;;;;3.60;100.00;99428.00;15259479;19;20039;-42
2023/04/09 07:24:18;;;;;;;335.05;23.33;;;;;;;3.69;100.00;99430.97;15261907;19;20018;-45
2023/04/09 07:29:48;;;;;;;38.03;19.65;;;;;;;3.95;100.00;99423.16;15260188;19;20334;-44
2023/04/09 07:35:17;;;;;;;22.95;18.63;;;;;;;4.13;100.00;99428.34;15263866;19;20082;-45
2023/04/09 07:40:42;;;;;;;91.85;19.95;;;;;;;4.15;100.00;99413.94;15257945;19;20039;-45
2023/04/09 07:46:09;;;;;;;38.30;19.10;;;;;;;4.30;100.00;99424.59;15277008;19;20018;-44
2023/04/09 07:51:40;;;;;;;30.33;19.45;;;;;;;4.53;100.00;99425.81;15273233;19;20016;-43
2023/04/09 07:57:05;;;;;;;36.77;19.23;;;;;;;4.62;100.00;99419.91;15276974;19;20010;-43
2023/04/09 08:02:32;;;;;;;21.15;18.23;;;;;;;4.82;100.00;99412.41;15274306;19;20021;-44
2023/04/09 08:07:58;;;;;;;21.42;18.25;;;;;;;4.95;100.00;99412.44;15276702;19;20036;-44
2023/04/09 08:13:16;;;;;;;18.50;16.63;;;;;;;5.05;100.00;99405.56;15271715;19;20020;-42
2023/04/09 08:18:43;;;;;;;19.98;17.88;;;;;;;5.06;100.00;99399.22;15274096;19;20464;-43
2023/04/09 08:24:10;;;;;;;19.98;17.88;;;;;;;5.05;100.00;99404.69;15267325;19;20053;-45
2023/04/09 08:29:37;;;;;;;21.33;19.13;;;;;;;5.16;100.00;99394.16;15269881;19;20018;-44
2023/04/09 08:35:05;;;;;;;21.75;19.55;;;;;;;5.36;100.00;99398.16;15273857;19;20011;-43
2023/04/09 08:40:31;;;;;;;19.70;17.70;;;;;;;5.64;100.00;99396.28;15266982;19;20014;-43
2023/04/09 08:45:58;;;;;;;18.85;17.00;;;;;;;6.03;100.00;99401.66;15271013;19;20085;-43
2023/04/09 08:51:27;;;;;;;16.90;15.15;;;;;;;6.34;100.00;99388.75;15268847;19;20029;-44
2023/04/09 08:56:55;;;;;;;16.05;14.45;;;;;;;6.66;100.00;99377.53;15271800;19;20113;-47
2023/04/09 09:02:19;;;;;;;15.48;14.02;;;;;;;6.96;100.00;99353.94;15267573;19;20021;-44
2023/04/09 09:07:57;;;;;;;14.15;12.75;;;;;;;7.14;100.00;99341.84;15269889;19;20032;-47
2023/04/09 09:13:21;;;;;;;13.07;11.77;;;;;;;7.49;100.00;99329.34;15270178;19;20026;-45
2023/04/09 09:18:48;;;;;;;12.30;11.20;;;;;;;7.61;100.00;99317.69;15265303;19;20089;-45
2023/04/09 09:24:20;;;;;;;12.32;11.02;;;;;;;7.84;100.00;99323.06;15264203;19;20014;-46
2023/04/09 09:29:49;;;;;;;12.77;11.57;;;;;;;7.96;100.00;99315.88;15268144;19;20328;-46
2023/04/09 09:35:16;;;;;;;13.07;11.88;;;;;;;8.16;100.00;99309.75;15271555;19;20492;-44
2023/04/09 09:40:43;;;;;;;12.15;11.02;;;;;;;8.36;100.00;99318.00;15263751;19;20089;-45
2023/04/09 09:46:09;;;;;;;12.48;11.32;;;;;;;8.51;100.00;99305.22;15271015;19;20017;-44
2023/04/09 09:51:45;;;;;;;12.65;11.45;;;;;;;8.60;100.00;99309.81;15262711;19;20027;-44
2023/04/09 09:57:14;;;;;;;11.43;10.32;;;;;;;8.77;100.00;99304.88;15269336;19;20016;-44
2023/04/09 10:02:46;;;;;;;11.43;10.32;;;;;;;9.02;100.00;99306.38;15267794;19;20298;-48
2023/04/09 10:08:12;;;;;;;11.93;10.73;;;;;;;9.09;100.00;99309.38;15263431;19;20017;-47
2023/04/09 10:13:44;;;;;;;12.35;11.15;;;;;;;9.24;100.00;99308.06;15263105;19;20048;-45
2023/04/09 10:19:13;;;;;;;12.27;11.10;;;;;;;9.35;100.00;99306.31;15263239;19;20489;-48
2023/04/09 10:24:38;;;;;;;11.38;10.27;;;;;;;9.49;100.00;99297.88;15258699;19;20430;-47
2023/04/09 10:30:09;;;;;;;11.40;10.30;;;;;;;9.65;100.00;99293.88;15261844;19;20015;-46
2023/04/09 10:35:35;;;;;;;10.20;9.30;;;;;;;9.97;100.00;99298.25;15263644;19;20374;-43
2023/04/09 10:41:00;;;;;;;10.35;9.18;;;;;;;10.20;100.00;99284.59;15261977;19;20018;-43
2023/04/09 10:46:39;;;;;;;9.77;8.88;;;;;;;10.31;100.00;99277.25;15264983;19;20402;-43
2023/04/09 10:52:14;;;;;;;10.30;9.30;;;;;;;10.60;100.00;99272.94;15256181;19;20358;-44
2023/04/09 10:57:39;;;;;;;9.98;9.07;;;;;;;10.75;100.00;99262.59;15261034;19;20025;-46
2023/04/09 11:03:23;;;;;;;9.30;8.25;;;;;;;10.89;100.00;99266.69;15255249;19;20051;-46
2023/04/09 11:08:48;;;;;;;9.23;7.85;;;;;;;11.16;100.00;99251.63;15263526;19;20010;-43
2023/04/09 11:14:12;;;;;;;8.27;7.47;;;;;;;11.34;100.00;99257.13;15263456;19;20027;-45
2023/04/09 11:19:40;;;;;;;8.23;7.43;;;;;;;11.41;100.00;99248.31;15272652;19;20013;-42
2023/04/09 11:25:06;;;;;;;8.27;6.65;;;;;;;11.41;100.00;99242.91;15268372;19;20018;-43
2023/04/09 11:30:33;;;;;;;6.93;6.32;;;;;;;11.43;100.00;99236.53;15269806;19;20017;-45
2023/04/09 11:36:01;;;;;;;6.63;6.03;;;;;;;11.59;100.00;99242.13;15278201;19;20011;-43
2023/04/09 11:41:35;;;;;;;7.28;6.60;;;;;;;11.69;100.00;99236.69;15272012;19;20023;-45
2023/04/09 11:47:00;;;;;;;6.60;6.00;;;;;;;11.95;100.00;99236.84;15266548;19;20017;-47
2023/04/09 11:52:30;;;;;;;6.30;5.80;;;;;;;11.95;100.00;99228.75;15268046;19;20444;-46
2023/04/09 11:57:56;;;;;;;6.03;5.47;;;;;;;11.96;100.00;99226.91;15270444;19;20017;-43
2023/04/09 12:03:31;;;;;;;6.15;5.65;;;;;;;12.17;100.00;99221.28;15271692;19;20029;-44
2023/04/09 12:09:01;;;;;;;6.07;5.57;;;;;;;12.53;100.00;99224.00;15274282;19;20098;-43
2023/04/09 12:14:26;;;;;;;5.38;4.90;;;;;;;12.74;100.00;99220.16;15271449;19;20014;-44
2023/04/09 12:19:51;;;;;;;4.68;4.28;;;;;;;12.85;100.00;99217.22;15269619;19;20015;-43
2023/04/09 12:25:18;;;;;;;5.00;4.60;;;;;;;12.90;100.00;99214.88;15269988;19;20016;-42
2023/04/09 12:30:44;;;;;;;5.40;4.90;;;;;;;13.16;100.00;99219.47;15261988;19;20017;-44
2023/04/09 12:36:10;;;;;;;3.22;2.92;;;;;;;13.35;100.00;99214.84;15271404;19;20025;-43
2023/04/09 12:41:37;;;;;;;2.00;1.90;;;;;;;13.62;98.99;99210.28;15263311;19;20024;-45
2023/04/09 12:47:02;;;;;;;1.73;1.63;;;;;;;13.95;77.47;99202.28;15270624;19;20020;-45
2023/04/09 12:52:27;;;;;;;2.78;2.58;;;;;;;14.30;100.00;99198.50;15267138;19;20021;-47
2023/04/09 12:57:54;;;;;;;3.00;2.80;;;;;;;14.62;84.75;99194.16;15267420;19;20418;-46
2023/04/09 13:03:19;;;;;;;2.40;2.20;;;;;;;14.82;78.23;99185.69;15261487;19;20082;-47
2023/04/09 13:08:44;;;;;;;3.03;2.83;;;;;;;14.99;69.40;99175.72;15263637;19;20525;-46
2023/04/09 13:14:13;;;;;;;3.63;3.33;;;;;;;15.10;74.88;99183.50;15269743;19;20014;-49
2023/04/09 13:19:38;;;;;;;3.20;3.00;;;;;;;15.15;77.17;99174.81;15265375;19;20013;-46
2023/04/09 13:25:03;;;;;;;3.42;3.17;;;;;;;15.49;76.72;99172.88;15263756;19;20090;-43
2023/04/09 13:30:30;;;;;;;3.45;3.15;;;;;;;15.04;63.11;99164.34;15263032;19;20018;-46
2023/04/09 13:35:56;;;;;;;3.90;3.60;;;;;;;15.20;80.48;99163.44;15265175;19;20027;-44
2023/04/09 13:41:26;;;;;;;3.90;3.42;;;;;;;15.09;68.38;99168.22;15262835;19;20407;-44
2023/04/09 13:46:54;;;;;;;3.30;3.00;;;;;;;14.82;68.19;99155.03;15268328;19;20009;-46
2023/04/09 13:52:26;;;;;;;2.92;2.70;;;;;;;15.04;67.06;99146.16;15264647;19;20021;-47
2023/04/09 13:57:51;;;;;;;3.85;2.80;;;;;;;15.37;77.33;99151.50;15268234;19;20073;-45
2023/04/09 14:03:19;;;;;;;2.65;2.45;;;;;;;15.83;65.28;99141.81;15266589;19;20086;-42
2023/04/09 14:08:44;;;;;;;2.92;2.72;;;;;;;15.91;71.01;99133.69;15261647;19;20018;-42
2023/04/09 14:14:11;;;;;;;2.88;2.67;;;;;;;16.11;70.55;99130.50;15266475;19;20011;-43
2023/04/09 14:19:39;;;;;;;3.22;2.92;;;;;;;16.08;63.61;99129.00;15264014;19;20025;-45
2023/04/09 14:25:04;;;;;;;2.90;2.70;;;;;;;16.38;66.92;99123.66;15264117;19;20098;-44
2023/04/09 14:30:29;;;;;;;2.85;2.65;;;;;;;16.68;63.06;99121.06;15263351;19;20017;-45
2023/04/09 14:35:57;;;;;;;3.20;2.90;;;;;;;16.92;64.14;99119.97;15265755;19;20007;-45
2023/04/09 14:41:23;;;;;;;3.33;3.03;;;;;;;16.83;61.71;99114.78;15258092;19;20035;-47
2023/04/09 14:46:47;;;;;;;3.17;2.88;;;;;;;16.84;63.06;99109.19;15260798;19;20018;-46
2023/04/09 14:52:21;;;;;;;2.85;2.65;;;;;;;16.94;59.20;99101.63;15259270;19;20023;-48
2023/04/09 14:57:46;;;;;;;3.30;3.00;;;;;;;17.14;59.41;99106.50;15263096;19;21013;-46
2023/04/09 15:03:11;;;;;;;3.63;3.33;;;;;;;16.91;60.42;99106.56;15261361;19;20021;-46
2023/04/09 15:08:38;;;;;;;3.40;3.10;;;;;;;16.91;57.62;99101.94;15262101;19;20018;-47
2023/04/09 15:14:03;;;;;;;3.10;2.80;;;;;;;16.94;63.48;99107.06;15257532;19;20482;-44
2023/04/09 15:19:29;;;;;;;3.40;3.10;;;;;;;16.77;58.22;99105.47;15259540;19;20085;-45
2023/04/09 15:24:58;;;;;;;3.65;3.35;;;;;;;16.56;59.39;99100.75;15259540;19;20015;-45
2023/04/09 15:30:22;;;;;;;3.55;3.25;;;;;;;16.42;59.51;99100.53;15259314;19;20480;-47
2023/04/09 15:35:47;;;;;;;3.30;3.00;;;;;;;16.61;62.37;99101.91;15263365;19;20029;-45
2023/04/09 15:41:15;;;;;;;3.72;3.42;;;;;;;16.64;61.34;99103.41;15256499;19;20016;-49
2023/04/09 15:46:40;;;;;;;3.35;3.15;;;;;;;16.59;62.46;99098.50;15253778;19;20788;-50
2023/04/09 15:52:11;;;;;;;3.80;3.50;;;;;;;16.48;59.65;99101.66;15253997;19;20074;-46
2023/04/09 15:57:38;;;;;;;3.60;3.30;;;;;;;16.45;59.98;99108.34;15249707;19;20483;-49
2023/04/09 16:03:03;;;;;;;3.53;3.22;;;;;;;16.37;66.54;99113.81;15265272;19;20808;-46
2023/04/09 16:08:28;;;;;;;3.28;2.97;;;;;;;16.35;61.59;99115.03;15270705;19;20024;-47
2023/04/09 16:13:56;;;;;;;3.75;3.45;;;;;;;16.25;63.93;99112.53;15273485;19;20538;-49
2023/04/09 16:19:23;;;;;;;3.70;3.40;;;;;;;16.21;63.53;99117.50;15269621;19;20086;-45
2023/04/09 16:24:48;;;;;;;3.88;3.45;;;;;;;16.04;66.17;99121.38;15270594;19;20011;-46
2023/04/09 16:30:16;;;;;;;3.58;3.25;;;;;;;15.88;62.80;99116.88;15270967;19;20703;-46
2023/04/09 16:35:41;;;;;;;3.78;3.47;;;;;;;15.67;67.83;99118.31;15273471;19;20014;-49
2023/04/09 16:41:07;;;;;;;5.38;3.53;;;;;;;15.48;66.70;99106.00;15269094;19;20017;-48
2023/04/09 16:46:35;;;;;;;3.85;3.55;;;;;;;15.36;70.30;99113.69;15271206;19;20347;-46
2023/04/09 16:52:07;;;;;;;3.25;2.97;;;;;;;15.21;70.18;99116.28;15254235;19;20023;-47
2023/04/09 16:57:31;;;;;;;3.45;3.15;;;;;;;15.04;78.19;99113.59;15273407;19;20025;-50
2023/04/09 17:03:00;;;;;;;3.90;3.50;;;;;;;14.84;84.00;99112.28;15275735;19;20019;-45
2023/04/09 17:08:25;;;;;;;4.22;3.40;;;;;;;14.63;87.04;99113.66;15271824;19;20006;-55
2023/04/09 17:13:50;;;;;;;4.00;3.60;;;;;;;14.31;95.86;99116.19;15268978;19;20049;-51
2023/04/09 17:19:18;;;;;;;3.85;3.20;;;;;;;13.84;90.20;99104.06;15265161;19;20613;-48
2023/04/09 17:24:43;;;;;;;3.95;3.55;;;;;;;13.53;99.55;99120.91;15265604;19;20034;-54
2023/04/09 17:30:09;;;;;;;3.80;3.50;;;;;;;13.16;96.27;99113.94;15265812;19;20018;-48
2023/04/09 17:35:37;;;;;;;4.60;3.33;;;;;;;12.77;100.00;99117.06;15267567;19;20478;-49
2023/04/09 17:41:01;;;;;;;4.00;3.63;;;;;;;12.39;100.00;99119.16;15258727;19;20027;-51
2023/04/09 17:46:26;;;;;;;4.70;3.70;;;;;;;12.07;100.00;99121.41;15256345;19;20018;-54
2023/04/09 17:52:00;;;;;;;4.43;4.00;;;;;;;11.67;100.00;99126.19;15256042;19;20013;-55
2023/04/09 17:57:25;;;;;;;4.95;4.32;;;;;;;11.34;100.00;99120.41;15265048;19;20382;-52
2023/04/09 18:02:51;;;;;;;5.07;4.05;;;;;;;11.03;100.00;99123.34;15267562;19;20006;-48
2023/04/09 18:08:20;;;;;;;4.63;4.22;;;;;;;10.74;100.00;99123.41;15262419;19;20086;-46
2023/04/09 18:13:45;;;;;;;4.72;4.32;;;;;;;10.51;100.00;99136.38;15260107;19;20047;-50
2023/04/09 18:19:11;;;;;;;4.50;4.10;;;;;;;10.29;100.00;99144.56;15228681;19;20021;-50
2023/04/09 18:24:45;;;;;;;4.68;4.20;;;;;;;10.08;100.00;99138.47;15252493;19;20034;-51
2023/04/09 18:30:10;;;;;;;4.88;4.43;;;;;;;9.94;100.00;99147.78;15252116;19;20321;-47
2023/04/09 18:35:36;;;;;;;5.20;4.70;;;;;;;9.79;100.00;99147.34;15254137;19;20043;-48
2023/04/09 18:41:03;;;;;;;5.43;4.93;;;;;;;9.67;100.00;99152.84;15253045;19;20089;-50
2023/04/09 18:46:28;;;;;;;5.68;5.18;;;;;;;9.59;100.00;99151.81;15256029;19;20007;-48
2023/04/09 18:52:00;;;;;;;5.72;5.22;;;;;;;9.47;100.00;99159.97;15254547;19;20412;-51
2023/04/09 18:57:28;;;;;;;5.75;5.20;;;;;;;9.35;100.00;99169.16;15254700;19;20014;-50
2023/04/09 19:02:53;;;;;;;6.38;5.78;;;;;;;9.23;100.00;99174.59;15253142;19;20013;-49
2023/04/09 19:08:18;;;;;;;6.18;5.57;;;;;;;9.13;100.00;99164.81;15255099;19;20017;-47
2023/04/09 19:13:46;;;;;;;6.00;5.50;;;;;;;9.04;100.00;99161.06;15261198;19;20019;-48
2023/04/09 19:19:11;;;;;;;5.88;5.38;;;;;;;8.96;100.00;99166.28;15257501;19;20022;-44
2023/04/09 19:24:29;;;;;;;6.00;5.40;;;;;;;8.90;100.00;99170.34;15257973;19;20813;-46
2023/04/09 19:29:57;;;;;;;6.28;5.68;;;;;;;8.81;100.00;99177.34;15250157;19;20024;-45
2023/04/09 19:35:23;;;;;;;6.85;6.25;;;;;;;8.78;100.00;99185.66;15260941;19;20018;-46
2023/04/09 19:40:47;;;;;;;7.40;5.80;;;;;;;8.70;100.00;99182.78;15266011;19;20093;-47
2023/04/09 19:46:14;;;;;;;6.93;6.03;;;;;;;8.62;100.00;99184.31;15264179;19;20022;-46
2023/04/09 19:51:39;;;;;;;6.88;6.28;;;;;;;8.55;100.00;99187.63;15267915;19;20018;-44
2023/04/09 19:57:05;;;;;;;7.13;6.43;;;;;;;8.37;100.00;99190.00;15273049;19;20065;-46
2023/04/09 20:02:33;;;;;;;7.40;6.70;;;;;;;8.36;100.00;99193.66;15267205;19;20025;-48
2023/04/09 20:07:58;;;;;;;7.03;6.43;;;;;;;8.32;100.00;99198.44;15267005;19;20418;-45
2023/04/09 20:13:22;;;;;;;7.47;6.78;;;;;;;8.31;100.00;99208.31;15273967;19;20014;-45
2023/04/09 20:18:50;;;;;;;7.28;6.57;;;;;;;8.25;100.00;99210.66;15269036;19;20484;-49
2023/04/09 20:24:16;;;;;;;6.90;6.30;;;;;;;8.17;100.00;99205.94;15272384;19;20018;-47
2023/04/09 20:29:40;;;;;;;8.13;6.40;;;;;;;8.04;100.00;99207.91;15274459;19;20082;-44
2023/04/09 20:35:01;;;;;;;7.53;6.82;;;;;;;7.97;100.00;99207.56;15266931;19;20015;-48
2023/04/09 20:40:26;;;;;;;7.30;6.60;;;;;;;7.88;100.00;99211.84;15268014;19;20482;-45
2023/04/09 20:45:51;;;;;;;7.07;6.47;;;;;;;7.74;100.00;99201.38;15270000;19;20483;-48
2023/04/09 20:51:25;;;;;;;7.70;6.90;;;;;;;7.65;100.00;99193.09;15263039;19;20058;-46
2023/04/09 20:56:50;;;;;;;8.85;7.03;;;;;;;7.52;100.00;99197.75;15271496;19;20026;-45
2023/04/09 21:02:15;;;;;;;7.57;6.88;;;;;;;7.50;100.00;99202.38;15264966;19;20022;-44
2023/04/09 21:07:43;;;;;;;7.32;6.63;;;;;;;7.49;100.00;99190.81;15260524;19;20010;-49
2023/04/09 21:13:08;;;;;;;7.43;6.72;;;;;;;7.42;100.00;99188.72;15268460;19;20054;-49
2023/04/09 21:18:32;;;;;;;7.80;7.10;;;;;;;7.28;100.00;99192.50;15266744;19;20018;-50
2023/04/09 21:24:00;;;;;;;7.93;7.13;;;;;;;7.16;100.00;99188.97;15269842;19;20015;-48
2023/04/09 21:29:24;;;;;;;7.32;6.68;;;;;;;7.14;100.00;99190.91;15268192;19;20019;-45
2023/04/09 21:34:49;;;;;;;6.85;6.20;;;;;;;7.12;100.00;99184.78;15268509;19;20508;-45
2023/04/09 21:40:17;;;;;;;7.10;6.43;;;;;;;7.04;100.00;99175.53;15259806;19;20077;-47
2023/04/09 21:45:42;;;;;;;7.05;6.45;;;;;;;7.00;100.00;99174.06;15266437;19;20014;-48
2023/04/09 21:51:17;;;;;;;6.90;6.28;;;;;;;6.94;100.00;99178.09;15260338;19;20454;-45
2023/04/09 21:56:45;;;;;;;7.20;6.53;;;;;;;6.91;100.00;99169.44;15267372;19;20097;-49
2023/04/09 22:02:09;;;;;;;7.30;6.60;;;;;;;6.89;100.00;99171.38;15261548;19;20025;-46
2023/04/09 22:07:36;;;;;;;7.50;6.70;;;;;;;6.81;100.00;99179.16;15261549;19;20048;-45
2023/04/09 22:13:03;;;;;;;6.90;6.30;;;;;;;6.80;100.00;99170.28;15257526;19;20018;-45
2023/04/09 22:18:28;;;;;;;6.32;5.72;;;;;;;6.75;100.00;99176.00;15265427;19;20010;-44
2023/04/09 22:23:54;;;;;;;6.65;6.05;;;;;;;6.73;100.00;99185.97;15266894;19;20011;-46
2023/04/09 22:29:22;;;;;;;6.40;5.80;;;;;;;6.72;100.00;99188.75;15254383;19;20048;-47
2023/04/09 22:34:47;;;;;;;6.45;5.85;;;;;;;6.66;100.00;99181.19;15267459;19;20014;-44
2023/04/09 22:40:13;;;;;;;5.95;5.45;;;;;;;6.56;100.00;99187.25;15261685;19;20543;-48
2023/04/09 22:45:41;;;;;;;6.50;5.90;;;;;;;6.49;100.00;99175.28;15259230;19;20406;-44
2023/04/09 22:51:06;;;;;;;6.10;5.50;;;;;;;6.44;100.00;99181.00;15260597;19;20983;-46
2023/04/09 22:56:31;;;;;;;5.75;5.25;;;;;;;6.37;100.00;99190.47;15264064;19;20553;-47
2023/04/09 23:01:58;;;;;;;5.72;5.22;;;;;;;6.27;100.00;99182.28;15259430;19;20017;-46
2023/04/09 23:07:23;;;;;;;6.18;5.57;;;;;;;6.29;100.00;99190.22;15260758;19;20014;-47
2023/04/09 23:12:48;;;;;;;5.65;5.15;;;;;;;6.23;100.00;99186.16;15268340;19;20014;-47
2023/04/09 23:18:15;;;;;;;5.70;5.20;;;;;;;6.22;100.00;99178.25;15273112;19;20010;-47
2023/04/09 23:23:47;;;;;;;5.65;5.15;;;;;;;6.10;100.00;99186.22;15277263;19;20014;-46
2023/04/09 23:29:13;;;;;;;5.50;5.00;;;;;;;6.07;100.00;99174.91;15269645;19;20017;-45
2023/04/09 23:34:41;;;;;;;6.05;5.45;;;;;;;6.00;100.00;99180.69;15275624;19;20010;-49
2023/04/09 23:40:07;;;;;;;5.80;5.30;;;;;;;5.96;100.00;99178.31;15274208;19;20025;-46
2023/04/09 23:45:31;;;;;;;5.60;5.10;;;;;;;5.95;100.00;99168.56;15279110;19;20082;-45
2023/04/09 23:50:58;;;;;;;5.60;5.10;;;;;;;5.95;100.00;99174.81;15264595;19;20018;-45
2023/04/09 23:56:23;;;;;;;5.03;4.55;;;;;;;5.96;100.00;99175.63;15276590;19;20018;-44
